MSC Lea — 9HA2639 — position and weather

sailwx.info

Track history (hours):
 
Tides and Currents Weather Stations Pressure Air Temp Water Temp Dewpoint Dewpoint Depression Visibility Wind Speed Wind Dir Waves Ship Positions

MSC Lea

Last reported at 2015-May-27 05:19 UTC. Time now 2015-May-27 09:51 UTC.
Position N 32°49' E 035°01'.

Length 217 m; draft 8.7 m.

Type: Ship (hazmat cat A). MMSI: 215101000.

Date/timePositionNaut miles runAvg speedWind from/ knotsBaromVisibWave heightAir tempDewpointWater temp
2015-May-27 05:19N 32°49' E 035°01'0 0.0
2015-May-27 04:32N 32°49' E 035°01'0 0.0
2015-May-27 02:09N 32°49' E 035°01'0 0.0
2015-May-27 00:20N 32°49' E 035°01'0 0.0
2015-May-26 22:24N 32°49' E 035°01'0 0.1
2015-May-26 21:33N 32°49' E 035°01'4 3.5
2015-May-26 20:33N 32°52' E 034°59'8 8.0
2015-May-26 19:34N 32°50' E 034°50'1414.3
2015-May-26 18:34N 32°36' E 034°45'1414.2
2015-May-26 17:33N 32°23' E 034°40'1413.9
2015-May-26 16:33N 32°09' E 034°36'1413.8
2015-May-26 15:33N 31°56' E 034°31'9 8.5
2015-May-26 14:33N 31°50' E 034°38'1 0.0
2015-May-25 20:31N 31°50' E 034°38'0 0.0
2015-May-25 19:33N 31°50' E 034°38'0 0.0
2015-May-25 18:32N 31°50' E 034°38'0 0.0
2015-May-25 17:33N 31°50' E 034°38'0 0.0
2015-May-25 16:33N 31°50' E 034°38'0 0.0
2015-May-25 15:17N 31°50' E 034°38'0 0.0
2015-May-25 13:30N 31°50' E 034°38'2 1.8
2015-May-25 12:33N 31°51' E 034°38'21 3.0
2015-May-25 05:24N 31°58' E 034°14'1819.1
2015-May-25 04:26N 32°05' E 033°54'1718.8
2015-May-25 03:33N 32°12' E 033°36'2018.3
2015-May-25 02:28N 32°19' E 033°15'1817.9
2015-May-25 01:28N 32°25' E 032°55'3618.0
2015-May-24 23:29N 32°37' E 032°14'1718.1
2015-May-24 22:34N 32°42' E 031°56'1918.2
2015-May-24 21:30N 32°49' E 031°34'1918.6
2015-May-24 20:30N 32°57' E 031°14'1718.6
2015-May-24 19:34N 33°02' E 030°54'1818.4
2015-May-24 18:33N 33°07' E 030°33'2418.7
2015-May-24 17:15N 33°15' E 030°06'2218.5
2015-May-24 16:05N 33°22' E 029°41'36914.8
2015-May-23 15:12N 35°41' E 022°47'27513.9
2015-May-22 19:26N 39°20' E 019°17'1714.3
2015-May-22 18:15N 39°35' E 019°07'1014.6
2015-May-22 17:32N 39°44' E 019°01'  
Track history (hours):
 
Tides and Currents Weather Stations Pressure Air Temp Water Temp Dewpoint Dewpoint Depression Visibility Wind Speed Wind Dir Waves Ship Positions

MSC Lea

Last reported at 2015-May-27 05:19 UTC. Time now 2015-May-27 09:51 UTC.
Position N 32°49' E 035°01'.

Length 217 m; draft 8.7 m.

Type: Ship (hazmat cat A). MMSI: 215101000.

Date/timePositionNaut miles runAvg speedWind from/ knotsBaromVisibWave heightAir tempDewpointWater temp
2015-May-27 05:19N 32°49' E 035°01'0 0.0
2015-May-27 04:32N 32°49' E 035°01'0 0.0
2015-May-27 02:09N 32°49' E 035°01'0 0.0
2015-May-27 00:20N 32°49' E 035°01'0 0.0
2015-May-26 22:24N 32°49' E 035°01'0 0.1
2015-May-26 21:33N 32°49' E 035°01'4 3.5
2015-May-26 20:33N 32°52' E 034°59'8 8.0
2015-May-26 19:34N 32°50' E 034°50'1414.3
2015-May-26 18:34N 32°36' E 034°45'1414.2
2015-May-26 17:33N 32°23' E 034°40'1413.9
2015-May-26 16:33N 32°09' E 034°36'1413.8
2015-May-26 15:33N 31°56' E 034°31'9 8.5
2015-May-26 14:33N 31°50' E 034°38'1 0.0
2015-May-25 20:31N 31°50' E 034°38'0 0.0
2015-May-25 19:33N 31°50' E 034°38'0 0.0
2015-May-25 18:32N 31°50' E 034°38'0 0.0
2015-May-25 17:33N 31°50' E 034°38'0 0.0
2015-May-25 16:33N 31°50' E 034°38'0 0.0
2015-May-25 15:17N 31°50' E 034°38'0 0.0
2015-May-25 13:30N 31°50' E 034°38'2 1.8
2015-May-25 12:33N 31°51' E 034°38'21 3.0
2015-May-25 05:24N 31°58' E 034°14'1819.1
2015-May-25 04:26N 32°05' E 033°54'1718.8
2015-May-25 03:33N 32°12' E 033°36'2018.3
2015-May-25 02:28N 32°19' E 033°15'1817.9
2015-May-25 01:28N 32°25' E 032°55'3618.0
2015-May-24 23:29N 32°37' E 032°14'1718.1
2015-May-24 22:34N 32°42' E 031°56'1918.2
2015-May-24 21:30N 32°49' E 031°34'1918.6
2015-May-24 20:30N 32°57' E 031°14'1718.6
2015-May-24 19:34N 33°02' E 030°54'1818.4
2015-May-24 18:33N 33°07' E 030°33'2418.7
2015-May-24 17:15N 33°15' E 030°06'2218.5
2015-May-24 16:05N 33°22' E 029°41'36914.8
2015-May-23 15:12N 35°41' E 022°47'27513.9
2015-May-22 19:26N 39°20' E 019°17'1714.3
2015-May-22 18:15N 39°35' E 019°07'1014.6
2015-May-22 17:32N 39°44' E 019°01'  

Dump ship's entire track history